sensor_id;sensor_type;location;lat;lon;timestamp;P1;durP1;ratioP1;P2;durP2;ratioP2
61531;SDS011;47397;48.194;11.632;2022-12-07T00:00:44;5.40;;;4.18;;
61531;SDS011;47397;48.194;11.632;2022-12-07T00:01:45;6.22;;;5.05;;
61531;SDS011;47397;48.194;11.632;2022-12-07T00:02:46;5.43;;;4.43;;
61531;SDS011;47397;48.194;11.632;2022-12-07T00:03:49;5.93;;;4.65;;
61531;SDS011;47397;48.194;11.632;2022-12-07T00:04:51;5.55;;;4.68;;
61531;SDS011;47397;48.194;11.632;2022-12-07T00:05:52;6.25;;;4.72;;
61531;SDS011;47397;48.194;11.632;2022-12-07T00:06:52;7.47;;;4.38;;
61531;SDS011;47397;48.194;11.632;2022-12-07T00:07:53;5.80;;;4.80;;
61531;SDS011;47397;48.194;11.632;2022-12-07T00:08:53;5.72;;;4.32;;
61531;SDS011;47397;48.194;11.632;2022-12-07T00:09:54;5.63;;;5.03;;
61531;SDS011;47397;48.194;11.632;2022-12-07T00:10:54;6.25;;;4.72;;
61531;SDS011;47397;48.194;11.632;2022-12-07T00:11:55;5.90;;;4.72;;
61531;SDS011;47397;48.194;11.632;2022-12-07T00:12:55;5.47;;;4.53;;
61531;SDS011;47397;48.194;11.632;2022-12-07T00:13:56;6.05;;;4.50;;
61531;SDS011;47397;48.194;11.632;2022-12-07T00:14:58;6.15;;;4.97;;
61531;SDS011;47397;48.194;11.632;2022-12-07T00:15:59;7.47;;;5.05;;
61531;SDS011;47397;48.194;11.632;2022-12-07T00:17:00;6.13;;;4.80;;
61531;SDS011;47397;48.194;11.632;2022-12-07T00:18:01;5.10;;;4.22;;
61531;SDS011;47397;48.194;11.632;2022-12-07T00:19:03;5.85;;;4.95;;
61531;SDS011;47397;48.194;11.632;2022-12-07T00:20:05;5.13;;;3.95;;
61531;SDS011;47397;48.194;11.632;2022-12-07T00:21:06;5.72;;;4.90;;
61531;SDS011;47397;48.194;11.632;2022-12-07T00:22:10;6.80;;;4.60;;
61531;SDS011;47397;48.194;11.632;2022-12-07T00:23:10;6.45;;;4.68;;
61531;SDS011;47397;48.194;11.632;2022-12-07T00:24:11;5.47;;;4.45;;
61531;SDS011;47397;48.194;11.632;2022-12-07T00:25:12;6.15;;;5.10;;
61531;SDS011;47397;48.194;11.632;2022-12-07T00:26:13;5.90;;;4.88;;
61531;SDS011;47397;48.194;11.632;2022-12-07T00:27:14;8.95;;;5.07;;
61531;SDS011;47397;48.194;11.632;2022-12-07T00:28:14;5.13;;;4.40;;
61531;SDS011;47397;48.194;11.632;2022-12-07T00:29:15;5.78;;;4.40;;
61531;SDS011;47397;48.194;11.632;2022-12-07T00:30:17;5.15;;;4.13;;
61531;SDS011;47397;48.194;11.632;2022-12-07T00:31:18;5.70;;;4.63;;
61531;SDS011;47397;48.194;11.632;2022-12-07T00:32:19;5.82;;;4.50;;
61531;SDS011;47397;48.194;11.632;2022-12-07T00:33:20;5.78;;;4.55;;
61531;SDS011;47397;48.194;11.632;2022-12-07T00:34:22;5.80;;;4.50;;
61531;SDS011;47397;48.194;11.632;2022-12-07T00:35:22;6.72;;;4.88;;
61531;SDS011;47397;48.194;11.632;2022-12-07T00:36:23;5.72;;;4.35;;
61531;SDS011;47397;48.194;11.632;2022-12-07T00:37:24;5.97;;;4.72;;
61531;SDS011;47397;48.194;11.632;2022-12-07T00:38:26;5.85;;;5.13;;
61531;SDS011;47397;48.194;11.632;2022-12-07T00:39:28;5.72;;;4.60;;
61531;SDS011;47397;48.194;11.632;2022-12-07T00:40:28;5.50;;;4.57;;
61531;SDS011;47397;48.194;11.632;2022-12-07T00:41:29;5.43;;;4.30;;
61531;SDS011;47397;48.194;11.632;2022-12-07T00:42:30;6.15;;;4.63;;
61531;SDS011;47397;48.194;11.632;2022-12-07T00:43:30;5.40;;;4.72;;
61531;SDS011;47397;48.194;11.632;2022-12-07T00:44:31;6.25;;;4.93;;
61531;SDS011;47397;48.194;11.632;2022-12-07T00:45:32;5.88;;;4.78;;
61531;SDS011;47397;48.194;11.632;2022-12-07T00:46:32;6.25;;;4.80;;
61531;SDS011;47397;48.194;11.632;2022-12-07T00:47:33;7.05;;;4.90;;
61531;SDS011;47397;48.194;11.632;2022-12-07T00:48:33;5.70;;;4.45;;
61531;SDS011;47397;48.194;11.632;2022-12-07T00:49:35;6.35;;;4.63;;
61531;SDS011;47397;48.194;11.632;2022-12-07T00:50:36;6.47;;;4.95;;
61531;SDS011;47397;48.194;11.632;2022-12-07T00:51:36;5.82;;;4.53;;
61531;SDS011;47397;48.194;11.632;2022-12-07T00:52:36;5.45;;;4.38;;
61531;SDS011;47397;48.194;11.632;2022-12-07T00:53:37;5.07;;;4.57;;
61531;SDS011;47397;48.194;11.632;2022-12-07T00:54:39;5.82;;;4.70;;
61531;SDS011;47397;48.194;11.632;2022-12-07T00:55:39;5.75;;;4.53;;
61531;SDS011;47397;48.194;11.632;2022-12-07T00:56:40;5.22;;;4.22;;
61531;SDS011;47397;48.194;11.632;2022-12-07T00:57:40;5.50;;;4.63;;
61531;SDS011;47397;48.194;11.632;2022-12-07T00:58:41;5.78;;;4.60;;
61531;SDS011;47397;48.194;11.632;2022-12-07T00:59:41;5.25;;;4.57;;
61531;SDS011;47397;48.194;11.632;2022-12-07T01:00:42;6.38;;;4.47;;
61531;SDS011;47397;48.194;11.632;2022-12-07T01:01:43;5.53;;;4.55;;
61531;SDS011;47397;48.194;11.632;2022-12-07T01:02:43;5.95;;;4.82;;
61531;SDS011;47397;48.194;11.632;2022-12-07T01:03:44;6.68;;;4.68;;
61531;SDS011;47397;48.194;11.632;2022-12-07T01:04:45;5.85;;;4.45;;
61531;SDS011;47397;48.194;11.632;2022-12-07T01:05:49;4.90;;;4.15;;
61531;SDS011;47397;48.194;11.632;2022-12-07T01:06:51;6.05;;;4.43;;
61531;SDS011;47397;48.194;11.632;2022-12-07T01:07:51;5.85;;;4.68;;
61531;SDS011;47397;48.194;11.632;2022-12-07T01:08:52;6.05;;;4.70;;
61531;SDS011;47397;48.194;11.632;2022-12-07T01:09:52;5.82;;;4.63;;
61531;SDS011;47397;48.194;11.632;2022-12-07T01:10:57;5.47;;;4.38;;
61531;SDS011;47397;48.194;11.632;2022-12-07T01:11:58;6.05;;;4.80;;
61531;SDS011;47397;48.194;11.632;2022-12-07T01:12:59;5.25;;;4.75;;
61531;SDS011;47397;48.194;11.632;2022-12-07T01:13:59;5.30;;;4.28;;
61531;SDS011;47397;48.194;11.632;2022-12-07T01:15:00;5.70;;;5.07;;
61531;SDS011;47397;48.194;11.632;2022-12-07T01:16:02;5.93;;;4.55;;
61531;SDS011;47397;48.194;11.632;2022-12-07T01:17:04;6.07;;;4.90;;
61531;SDS011;47397;48.194;11.632;2022-12-07T01:18:04;6.57;;;4.57;;
61531;SDS011;47397;48.194;11.632;2022-12-07T01:19:04;5.82;;;4.57;;
61531;SDS011;47397;48.194;11.632;2022-12-07T01:20:07;5.47;;;4.43;;
61531;SDS011;47397;48.194;11.632;2022-12-07T01:21:09;6.03;;;4.95;;
61531;SDS011;47397;48.194;11.632;2022-12-07T01:22:11;5.85;;;4.55;;
61531;SDS011;47397;48.194;11.632;2022-12-07T01:23:12;6.53;;;4.85;;
61531;SDS011;47397;48.194;11.632;2022-12-07T01:24:12;6.13;;;4.55;;
61531;SDS011;47397;48.194;11.632;2022-12-07T01:25:12;5.53;;;4.40;;
61531;SDS011;47397;48.194;11.632;2022-12-07T01:26:14;5.65;;;4.68;;
61531;SDS011;47397;48.194;11.632;2022-12-07T01:27:16;5.90;;;4.75;;
61531;SDS011;47397;48.194;11.632;2022-12-07T01:28:16;5.55;;;4.75;;
61531;SDS011;47397;48.194;11.632;2022-12-07T01:29:17;6.05;;;4.88;;
61531;SDS011;47397;48.194;11.632;2022-12-07T01:30:17;6.80;;;4.38;;
61531;SDS011;47397;48.194;11.632;2022-12-07T01:31:18;5.80;;;4.63;;
61531;SDS011;47397;48.194;11.632;2022-12-07T01:32:20;6.50;;;4.53;;
61531;SDS011;47397;48.194;11.632;2022-12-07T01:33:20;5.63;;;4.53;;
61531;SDS011;47397;48.194;11.632;2022-12-07T01:34:21;5.18;;;4.68;;
61531;SDS011;47397;48.194;11.632;2022-12-07T01:35:22;5.72;;;4.78;;
61531;SDS011;47397;48.194;11.632;2022-12-07T01:36:24;5.18;;;4.43;;
61531;SDS011;47397;48.194;11.632;2022-12-07T01:37:26;7.00;;;4.85;;
61531;SDS011;47397;48.194;11.632;2022-12-07T01:38:26;8.32;;;5.10;;
61531;SDS011;47397;48.194;11.632;2022-12-07T01:39:27;5.60;;;4.80;;
61531;SDS011;47397;48.194;11.632;2022-12-07T01:40:27;5.30;;;4.60;;
61531;SDS011;47397;48.194;11.632;2022-12-07T01:41:28;5.65;;;4.75;;
61531;SDS011;47397;48.194;11.632;2022-12-07T01:42:30;6.18;;;4.97;;
61531;SDS011;47397;48.194;11.632;2022-12-07T01:43:32;5.55;;;4.43;;
61531;SDS011;47397;48.194;11.632;2022-12-07T01:46:03;5.20;;;4.45;;
61531;SDS011;47397;48.194;11.632;2022-12-07T01:47:04;5.50;;;4.05;;
61531;SDS011;47397;48.194;11.632;2022-12-07T01:48:05;5.80;;;4.63;;
61531;SDS011;47397;48.194;11.632;2022-12-07T01:49:08;5.30;;;4.25;;
61531;SDS011;47397;48.194;11.632;2022-12-07T01:50:12;6.75;;;4.78;;
61531;SDS011;47397;48.194;11.632;2022-12-07T01:51:16;6.25;;;5.07;;
61531;SDS011;47397;48.194;11.632;2022-12-07T01:52:18;6.68;;;5.00;;
61531;SDS011;47397;48.194;11.632;2022-12-07T01:53:28;5.78;;;4.68;;
61531;SDS011;47397;48.194;11.632;2022-12-07T01:54:30;5.78;;;4.70;;
61531;SDS011;47397;48.194;11.632;2022-12-07T01:55:32;6.70;;;5.18;;
61531;SDS011;47397;48.194;11.632;2022-12-07T01:56:35;5.93;;;4.70;;
61531;SDS011;47397;48.194;11.632;2022-12-07T01:57:38;5.72;;;5.10;;
61531;SDS011;47397;48.194;11.632;2022-12-07T01:58:41;6.28;;;4.72;;
61531;SDS011;47397;48.194;11.632;2022-12-07T01:59:41;6.20;;;4.70;;
61531;SDS011;47397;48.194;11.632;2022-12-07T02:00:43;5.68;;;5.07;;
61531;SDS011;47397;48.194;11.632;2022-12-07T02:01:43;6.68;;;4.85;;
61531;SDS011;47397;48.194;11.632;2022-12-07T02:02:45;6.40;;;5.43;;
61531;SDS011;47397;48.194;11.632;2022-12-07T02:03:49;6.95;;;5.30;;
61531;SDS011;47397;48.194;11.632;2022-12-07T02:04:51;6.40;;;5.05;;
61531;SDS011;47397;48.194;11.632;2022-12-07T02:05:52;6.85;;;4.75;;
61531;SDS011;47397;48.194;11.632;2022-12-07T02:06:55;6.63;;;4.57;;
61531;SDS011;47397;48.194;11.632;2022-12-07T02:07:57;5.90;;;4.60;;
61531;SDS011;47397;48.194;11.632;2022-12-07T02:08:58;6.38;;;4.85;;
61531;SDS011;47397;48.194;11.632;2022-12-07T02:10:11;5.38;;;4.78;;
61531;SDS011;47397;48.194;11.632;2022-12-07T02:11:12;6.93;;;4.30;;
61531;SDS011;47397;48.194;11.632;2022-12-07T02:12:13;6.38;;;4.82;;
61531;SDS011;47397;48.194;11.632;2022-12-07T02:13:14;5.82;;;5.05;;
61531;SDS011;47397;48.194;11.632;2022-12-07T02:14:16;5.60;;;4.85;;
61531;SDS011;47397;48.194;11.632;2022-12-07T02:15:17;6.05;;;4.85;;
61531;SDS011;47397;48.194;11.632;2022-12-07T02:16:23;6.65;;;4.95;;
61531;SDS011;47397;48.194;11.632;2022-12-07T02:17:30;6.20;;;4.93;;
61531;SDS011;47397;48.194;11.632;2022-12-07T02:18:41;6.68;;;5.05;;
61531;SDS011;47397;48.194;11.632;2022-12-07T02:20:00;5.40;;;4.43;;
61531;SDS011;47397;48.194;11.632;2022-12-07T02:21:11;6.15;;;4.90;;
61531;SDS011;47397;48.194;11.632;2022-12-07T02:22:22;4.93;;;4.32;;
61531;SDS011;47397;48.194;11.632;2022-12-07T02:24:48;6.03;;;4.70;;
61531;SDS011;47397;48.194;11.632;2022-12-07T02:25:58;6.55;;;4.85;;
61531;SDS011;47397;48.194;11.632;2022-12-07T02:27:14;5.18;;;4.38;;
61531;SDS011;47397;48.194;11.632;2022-12-07T02:28:26;5.72;;;4.72;;
61531;SDS011;47397;48.194;11.632;2022-12-07T02:29:33;6.35;;;4.45;;
61531;SDS011;47397;48.194;11.632;2022-12-07T02:30:40;6.45;;;5.05;;
61531;SDS011;47397;48.194;11.632;2022-12-07T02:31:45;5.88;;;4.63;;
61531;SDS011;47397;48.194;11.632;2022-12-07T02:32:51;6.85;;;5.10;;
61531;SDS011;47397;48.194;11.632;2022-12-07T02:33:57;5.40;;;4.38;;
61531;SDS011;47397;48.194;11.632;2022-12-07T02:35:04;5.70;;;4.85;;
61531;SDS011;47397;48.194;11.632;2022-12-07T02:36:08;6.18;;;4.63;;
61531;SDS011;47397;48.194;11.632;2022-12-07T02:37:15;6.57;;;4.88;;
61531;SDS011;47397;48.194;11.632;2022-12-07T02:38:24;5.88;;;4.60;;
61531;SDS011;47397;48.194;11.632;2022-12-07T02:39:31;5.90;;;4.75;;
61531;SDS011;47397;48.194;11.632;2022-12-07T02:40:38;6.65;;;4.90;;
61531;SDS011;47397;48.194;11.632;2022-12-07T02:41:43;6.40;;;4.78;;
61531;SDS011;47397;48.194;11.632;2022-12-07T02:42:51;7.47;;;5.38;;
61531;SDS011;47397;48.194;11.632;2022-12-07T02:43:57;5.95;;;4.60;;
61531;SDS011;47397;48.194;11.632;2022-12-07T02:45:01;5.43;;;4.68;;
61531;SDS011;47397;48.194;11.632;2022-12-07T02:46:05;5.78;;;4.88;;
61531;SDS011;47397;48.194;11.632;2022-12-07T02:47:10;6.35;;;5.30;;
61531;SDS011;47397;48.194;11.632;2022-12-07T02:48:14;6.13;;;4.97;;
61531;SDS011;47397;48.194;11.632;2022-12-07T02:49:17;5.47;;;4.43;;
61531;SDS011;47397;48.194;11.632;2022-12-07T02:50:19;6.00;;;5.13;;
61531;SDS011;47397;48.194;11.632;2022-12-07T02:51:20;5.93;;;4.72;;
61531;SDS011;47397;48.194;11.632;2022-12-07T02:52:21;5.60;;;4.50;;
61531;SDS011;47397;48.194;11.632;2022-12-07T02:53:29;6.50;;;5.13;;
61531;SDS011;47397;48.194;11.632;2022-12-07T02:54:31;5.93;;;4.88;;
61531;SDS011;47397;48.194;11.632;2022-12-07T02:55:34;5.28;;;4.70;;
61531;SDS011;47397;48.194;11.632;2022-12-07T02:56:39;6.43;;;5.05;;
61531;SDS011;47397;48.194;11.632;2022-12-07T02:57:51;5.85;;;4.90;;
61531;SDS011;47397;48.194;11.632;2022-12-07T02:59:05;6.28;;;4.95;;
61531;SDS011;47397;48.194;11.632;2022-12-07T03:00:15;6.00;;;4.80;;
61531;SDS011;47397;48.194;11.632;2022-12-07T03:01:20;6.10;;;4.70;;
61531;SDS011;47397;48.194;11.632;2022-12-07T03:02:31;6.28;;;4.75;;
61531;SDS011;47397;48.194;11.632;2022-12-07T03:03:38;6.07;;;4.45;;
61531;SDS011;47397;48.194;11.632;2022-12-07T03:04:42;5.32;;;4.72;;
61531;SDS011;47397;48.194;11.632;2022-12-07T03:05:51;5.35;;;4.72;;
61531;SDS011;47397;48.194;11.632;2022-12-07T03:07:00;6.43;;;4.75;;
61531;SDS011;47397;48.194;11.632;2022-12-07T03:08:06;5.05;;;4.53;;
61531;SDS011;47397;48.194;11.632;2022-12-07T03:09:14;5.82;;;4.80;;
61531;SDS011;47397;48.194;11.632;2022-12-07T03:10:22;6.03;;;4.70;;
61531;SDS011;47397;48.194;11.632;2022-12-07T03:11:32;5.95;;;5.35;;
61531;SDS011;47397;48.194;11.632;2022-12-07T03:12:43;5.45;;;4.32;;
61531;SDS011;47397;48.194;11.632;2022-12-07T03:13:46;6.07;;;4.55;;
61531;SDS011;47397;48.194;11.632;2022-12-07T03:14:50;5.40;;;4.72;;
61531;SDS011;47397;48.194;11.632;2022-12-07T03:16:01;6.22;;;5.10;;
61531;SDS011;47397;48.194;11.632;2022-12-07T03:17:06;6.07;;;5.10;;
61531;SDS011;47397;48.194;11.632;2022-12-07T03:18:11;6.47;;;5.25;;
61531;SDS011;47397;48.194;11.632;2022-12-07T03:19:14;5.35;;;4.43;;
61531;SDS011;47397;48.194;11.632;2022-12-07T03:20:18;5.97;;;4.72;;
61531;SDS011;47397;48.194;11.632;2022-12-07T03:21:23;6.28;;;4.85;;
61531;SDS011;47397;48.194;11.632;2022-12-07T03:22:26;5.85;;;4.82;;
61531;SDS011;47397;48.194;11.632;2022-12-07T03:23:29;6.03;;;4.57;;
61531;SDS011;47397;48.194;11.632;2022-12-07T03:24:36;5.70;;;4.45;;
61531;SDS011;47397;48.194;11.632;2022-12-07T03:25:39;5.30;;;4.20;;
61531;SDS011;47397;48.194;11.632;2022-12-07T03:26:41;5.30;;;4.20;;
61531;SDS011;47397;48.194;11.632;2022-12-07T03:27:45;5.95;;;4.20;;
61531;SDS011;47397;48.194;11.632;2022-12-07T03:28:51;5.10;;;4.18;;
61531;SDS011;47397;48.194;11.632;2022-12-07T03:29:56;5.60;;;4.35;;
61531;SDS011;47397;48.194;11.632;2022-12-07T03:31:02;5.13;;;3.97;;
61531;SDS011;47397;48.194;11.632;2022-12-07T03:32:08;5.15;;;4.22;;
61531;SDS011;47397;48.194;11.632;2022-12-07T03:33:13;5.22;;;4.07;;
61531;SDS011;47397;48.194;11.632;2022-12-07T03:34:21;5.53;;;4.28;;
61531;SDS011;47397;48.194;11.632;2022-12-07T03:35:27;5.70;;;4.38;;
61531;SDS011;47397;48.194;11.632;2022-12-07T03:36:32;5.45;;;4.40;;
61531;SDS011;47397;48.194;11.632;2022-12-07T03:37:36;5.78;;;4.55;;
61531;SDS011;47397;48.194;11.632;2022-12-07T03:38:42;6.15;;;5.05;;
61531;SDS011;47397;48.194;11.632;2022-12-07T03:39:49;5.80;;;4.82;;
61531;SDS011;47397;48.194;11.632;2022-12-07T03:40:58;6.20;;;4.68;;
61531;SDS011;47397;48.194;11.632;2022-12-07T03:42:01;6.00;;;4.82;;
61531;SDS011;47397;48.194;11.632;2022-12-07T03:43:05;5.55;;;4.60;;
61531;SDS011;47397;48.194;11.632;2022-12-07T03:44:06;5.68;;;4.85;;
61531;SDS011;47397;48.194;11.632;2022-12-07T03:45:07;6.13;;;5.18;;
61531;SDS011;47397;48.194;11.632;2022-12-07T03:46:12;6.47;;;5.18;;
61531;SDS011;47397;48.194;11.632;2022-12-07T03:47:20;6.43;;;4.75;;
61531;SDS011;47397;48.194;11.632;2022-12-07T03:48:27;5.78;;;4.97;;
61531;SDS011;47397;48.194;11.632;2022-12-07T03:49:32;6.38;;;5.00;;
61531;SDS011;47397;48.194;11.632;2022-12-07T03:50:42;6.35;;;5.15;;
61531;SDS011;47397;48.194;11.632;2022-12-07T03:51:50;7.18;;;5.20;;
61531;SDS011;47397;48.194;11.632;2022-12-07T03:52:55;5.95;;;4.80;;
61531;SDS011;47397;48.194;11.632;2022-12-07T03:54:00;5.68;;;4.82;;
61531;SDS011;47397;48.194;11.632;2022-12-07T03:55:06;5.60;;;4.60;;
61531;SDS011;47397;48.194;11.632;2022-12-07T03:56:09;6.68;;;5.30;;
61531;SDS011;47397;48.194;11.632;2022-12-07T03:57:11;5.85;;;4.75;;
61531;SDS011;47397;48.194;11.632;2022-12-07T03:58:15;6.28;;;5.43;;
61531;SDS011;47397;48.194;11.632;2022-12-07T03:59:18;7.35;;;5.43;;
61531;SDS011;47397;48.194;11.632;2022-12-07T04:00:20;6.05;;;5.18;;
61531;SDS011;47397;48.194;11.632;2022-12-07T04:01:22;5.80;;;4.93;;
61531;SDS011;47397;48.194;11.632;2022-12-07T04:02:23;5.65;;;5.05;;
61531;SDS011;47397;48.194;11.632;2022-12-07T04:03:24;6.88;;;4.88;;
61531;SDS011;47397;48.194;11.632;2022-12-07T04:04:25;5.75;;;5.20;;
61531;SDS011;47397;48.194;11.632;2022-12-07T04:05:25;5.97;;;5.10;;
61531;SDS011;47397;48.194;11.632;2022-12-07T04:06:26;6.28;;;5.40;;
61531;SDS011;47397;48.194;11.632;2022-12-07T04:07:26;5.72;;;5.00;;
61531;SDS011;47397;48.194;11.632;2022-12-07T04:08:27;6.43;;;5.32;;
61531;SDS011;47397;48.194;11.632;2022-12-07T04:09:27;6.20;;;5.45;;
61531;SDS011;47397;48.194;11.632;2022-12-07T04:10:28;6.10;;;5.22;;
61531;SDS011;47397;48.194;11.632;2022-12-07T04:11:29;6.40;;;5.35;;
61531;SDS011;47397;48.194;11.632;2022-12-07T04:12:29;6.35;;;5.20;;
61531;SDS011;47397;48.194;11.632;2022-12-07T04:13:29;6.03;;;5.00;;
61531;SDS011;47397;48.194;11.632;2022-12-07T04:14:30;6.38;;;5.03;;
61531;SDS011;47397;48.194;11.632;2022-12-07T04:15:30;6.60;;;5.35;;
61531;SDS011;47397;48.194;11.632;2022-12-07T04:16:32;6.63;;;5.20;;
61531;SDS011;47397;48.194;11.632;2022-12-07T04:17:32;7.15;;;5.72;;
61531;SDS011;47397;48.194;11.632;2022-12-07T04:18:33;6.78;;;5.45;;
61531;SDS011;47397;48.194;11.632;2022-12-07T04:19:33;6.53;;;5.20;;
61531;SDS011;47397;48.194;11.632;2022-12-07T04:20:34;6.25;;;5.40;;
61531;SDS011;47397;48.194;11.632;2022-12-07T04:21:35;7.03;;;5.97;;
61531;SDS011;47397;48.194;11.632;2022-12-07T04:22:35;6.50;;;5.60;;
61531;SDS011;47397;48.194;11.632;2022-12-07T04:23:35;6.20;;;5.15;;
61531;SDS011;47397;48.194;11.632;2022-12-07T04:24:36;6.40;;;5.28;;
61531;SDS011;47397;48.194;11.632;2022-12-07T04:25:36;6.97;;;5.40;;
61531;SDS011;47397;48.194;11.632;2022-12-07T04:26:37;6.57;;;5.15;;
61531;SDS011;47397;48.194;11.632;2022-12-07T04:27:37;7.03;;;5.88;;
61531;SDS011;47397;48.194;11.632;2022-12-07T04:28:38;6.75;;;5.60;;
61531;SDS011;47397;48.194;11.632;2022-12-07T04:29:38;7.05;;;5.70;;
61531;SDS011;47397;48.194;11.632;2022-12-07T04:30:38;6.45;;;4.90;;
61531;SDS011;47397;48.194;11.632;2022-12-07T04:31:40;6.65;;;5.45;;
61531;SDS011;47397;48.194;11.632;2022-12-07T04:32:41;6.68;;;5.10;;
61531;SDS011;47397;48.194;11.632;2022-12-07T04:33:41;7.15;;;5.80;;
61531;SDS011;47397;48.194;11.632;2022-12-07T04:34:42;6.07;;;5.43;;
61531;SDS011;47397;48.194;11.632;2022-12-07T04:35:42;6.88;;;5.78;;
61531;SDS011;47397;48.194;11.632;2022-12-07T04:36:43;7.50;;;5.70;;
61531;SDS011;47397;48.194;11.632;2022-12-07T04:37:44;7.05;;;5.60;;
61531;SDS011;47397;48.194;11.632;2022-12-07T04:38:44;7.03;;;5.35;;
61531;SDS011;47397;48.194;11.632;2022-12-07T04:39:45;7.25;;;5.80;;
61531;SDS011;47397;48.194;11.632;2022-12-07T04:40:45;6.90;;;5.63;;
61531;SDS011;47397;48.194;11.632;2022-12-07T04:41:46;7.28;;;5.70;;
61531;SDS011;47397;48.194;11.632;2022-12-07T04:42:46;6.18;;;5.25;;
61531;SDS011;47397;48.194;11.632;2022-12-07T04:43:46;6.53;;;5.57;;
61531;SDS011;47397;48.194;11.632;2022-12-07T04:44:47;7.18;;;6.15;;
61531;SDS011;47397;48.194;11.632;2022-12-07T04:45:47;6.95;;;5.72;;
61531;SDS011;47397;48.194;11.632;2022-12-07T04:46:49;6.75;;;5.25;;
61531;SDS011;47397;48.194;11.632;2022-12-07T04:47:50;7.18;;;5.55;;
61531;SDS011;47397;48.194;11.632;2022-12-07T04:48:51;6.93;;;5.88;;
61531;SDS011;47397;48.194;11.632;2022-12-07T04:49:52;6.90;;;5.63;;
61531;SDS011;47397;48.194;11.632;2022-12-07T04:50:52;7.32;;;5.57;;
61531;SDS011;47397;48.194;11.632;2022-12-07T04:51:53;7.43;;;5.63;;
61531;SDS011;47397;48.194;11.632;2022-12-07T04:52:53;7.55;;;5.72;;
61531;SDS011;47397;48.194;11.632;2022-12-07T04:53:54;7.85;;;5.75;;
61531;SDS011;47397;48.194;11.632;2022-12-07T04:54:55;6.60;;;5.85;;
61531;SDS011;47397;48.194;11.632;2022-12-07T04:55:55;6.45;;;5.47;;
61531;SDS011;47397;48.194;11.632;2022-12-07T04:56:56;6.68;;;5.35;;
61531;SDS011;47397;48.194;11.632;2022-12-07T04:57:56;6.72;;;5.78;;
61531;SDS011;47397;48.194;11.632;2022-12-07T04:58:57;7.25;;;5.68;;
61531;SDS011;47397;48.194;11.632;2022-12-07T04:59:57;7.32;;;5.75;;
61531;SDS011;47397;48.194;11.632;2022-12-07T05:00:57;7.53;;;6.15;;
61531;SDS011;47397;48.194;11.632;2022-12-07T05:01:59;7.82;;;6.07;;
61531;SDS011;47397;48.194;11.632;2022-12-07T05:03:00;7.68;;;5.72;;
61531;SDS011;47397;48.194;11.632;2022-12-07T05:04:00;7.72;;;5.85;;
61531;SDS011;47397;48.194;11.632;2022-12-07T05:05:01;7.45;;;6.20;;
61531;SDS011;47397;48.194;11.632;2022-12-07T05:06:01;6.88;;;5.28;;
61531;SDS011;47397;48.194;11.632;2022-12-07T05:07:02;7.63;;;5.93;;
61531;SDS011;47397;48.194;11.632;2022-12-07T05:08:02;7.20;;;6.30;;
61531;SDS011;47397;48.194;11.632;2022-12-07T05:09:03;6.72;;;5.65;;
61531;SDS011;47397;48.194;11.632;2022-12-07T05:10:04;7.43;;;6.38;;
61531;SDS011;47397;48.194;11.632;2022-12-07T05:11:06;7.25;;;6.10;;
61531;SDS011;47397;48.194;11.632;2022-12-07T05:12:07;7.63;;;6.07;;
61531;SDS011;47397;48.194;11.632;2022-12-07T05:13:07;6.53;;;5.80;;
61531;SDS011;47397;48.194;11.632;2022-12-07T05:14:09;6.90;;;6.00;;
61531;SDS011;47397;48.194;11.632;2022-12-07T05:15:12;7.15;;;5.25;;
61531;SDS011;47397;48.194;11.632;2022-12-07T05:16:13;7.30;;;5.78;;
61531;SDS011;47397;48.194;11.632;2022-12-07T05:17:14;7.38;;;6.15;;
61531;SDS011;47397;48.194;11.632;2022-12-07T05:18:15;6.95;;;5.88;;
61531;SDS011;47397;48.194;11.632;2022-12-07T05:19:16;6.88;;;5.50;;
61531;SDS011;47397;48.194;11.632;2022-12-07T05:20:17;7.90;;;6.07;;
61531;SDS011;47397;48.194;11.632;2022-12-07T05:21:17;7.90;;;6.05;;
61531;SDS011;47397;48.194;11.632;2022-12-07T05:22:18;6.97;;;5.70;;
61531;SDS011;47397;48.194;11.632;2022-12-07T05:23:18;7.38;;;5.78;;
61531;SDS011;47397;48.194;11.632;2022-12-07T05:24:19;7.05;;;6.18;;
61531;SDS011;47397;48.194;11.632;2022-12-07T05:25:19;7.53;;;6.05;;
61531;SDS011;47397;48.194;11.632;2022-12-07T05:26:20;6.45;;;5.57;;
61531;SDS011;47397;48.194;11.632;2022-12-07T05:27:20;9.07;;;6.22;;
61531;SDS011;47397;48.194;11.632;2022-12-07T05:28:21;7.72;;;6.10;;
61531;SDS011;47397;48.194;11.632;2022-12-07T05:29:21;7.70;;;5.47;;
61531;SDS011;47397;48.194;11.632;2022-12-07T05:30:22;8.15;;;6.13;;
61531;SDS011;47397;48.194;11.632;2022-12-07T05:31:22;7.43;;;5.60;;
61531;SDS011;47397;48.194;11.632;2022-12-07T05:32:25;6.78;;;5.10;;
61531;SDS011;47397;48.194;11.632;2022-12-07T05:33:26;6.65;;;5.60;;
61531;SDS011;47397;48.194;11.632;2022-12-07T05:34:26;7.22;;;5.88;;
61531;SDS011;47397;48.194;11.632;2022-12-07T05:35:26;6.28;;;5.43;;
61531;SDS011;47397;48.194;11.632;2022-12-07T05:36:27;7.13;;;5.57;;
61531;SDS011;47397;48.194;11.632;2022-12-07T05:37:27;7.13;;;5.50;;
61531;SDS011;47397;48.194;11.632;2022-12-07T05:38:28;8.63;;;5.93;;
61531;SDS011;47397;48.194;11.632;2022-12-07T05:39:28;6.60;;;5.70;;
61531;SDS011;47397;48.194;11.632;2022-12-07T05:40:28;6.25;;;5.47;;
61531;SDS011;47397;48.194;11.632;2022-12-07T05:41:29;6.95;;;5.45;;
61531;SDS011;47397;48.194;11.632;2022-12-07T05:42:29;8.90;;;5.32;;
61531;SDS011;47397;48.194;11.632;2022-12-07T05:43:30;6.80;;;5.50;;
61531;SDS011;47397;48.194;11.632;2022-12-07T05:44:30;6.93;;;5.65;;
61531;SDS011;47397;48.194;11.632;2022-12-07T05:45:31;7.70;;;6.20;;
61531;SDS011;47397;48.194;11.632;2022-12-07T05:46:31;6.35;;;5.32;;
61531;SDS011;47397;48.194;11.632;2022-12-07T05:47:33;7.75;;;5.60;;
61531;SDS011;47397;48.194;11.632;2022-12-07T05:48:34;6.22;;;5.63;;
61531;SDS011;47397;48.194;11.632;2022-12-07T05:49:34;7.03;;;5.60;;
61531;SDS011;47397;48.194;11.632;2022-12-07T05:50:35;6.65;;;5.50;;
61531;SDS011;47397;48.194;11.632;2022-12-07T05:51:35;6.20;;;5.47;;
61531;SDS011;47397;48.194;11.632;2022-12-07T05:52:36;7.55;;;6.05;;
61531;SDS011;47397;48.194;11.632;2022-12-07T05:53:36;6.80;;;5.70;;
61531;SDS011;47397;48.194;11.632;2022-12-07T05:54:37;8.05;;;5.90;;
61531;SDS011;47397;48.194;11.632;2022-12-07T05:55:37;7.18;;;6.18;;
61531;SDS011;47397;48.194;11.632;2022-12-07T05:56:37;7.07;;;5.63;;
61531;SDS011;47397;48.194;11.632;2022-12-07T05:57:38;7.22;;;5.53;;
61531;SDS011;47397;48.194;11.632;2022-12-07T05:58:38;6.88;;;5.60;;
61531;SDS011;47397;48.194;11.632;2022-12-07T05:59:39;6.55;;;5.47;;
61531;SDS011;47397;48.194;11.632;2022-12-07T06:00:39;6.57;;;5.45;;
61531;SDS011;47397;48.194;11.632;2022-12-07T06:01:40;6.72;;;5.38;;
61531;SDS011;47397;48.194;11.632;2022-12-07T06:02:41;7.10;;;5.07;;
61531;SDS011;47397;48.194;11.632;2022-12-07T06:03:42;7.70;;;5.88;;
61531;SDS011;47397;48.194;11.632;2022-12-07T06:04:43;6.63;;;5.53;;
61531;SDS011;47397;48.194;11.632;2022-12-07T06:05:44;7.32;;;5.72;;
61531;SDS011;47397;48.194;11.632;2022-12-07T06:06:45;6.95;;;5.57;;
61531;SDS011;47397;48.194;11.632;2022-12-07T06:07:45;6.75;;;5.97;;
61531;SDS011;47397;48.194;11.632;2022-12-07T06:08:46;6.45;;;5.45;;
61531;SDS011;47397;48.194;11.632;2022-12-07T06:09:46;6.70;;;6.00;;
61531;SDS011;47397;48.194;11.632;2022-12-07T06:10:47;6.38;;;5.60;;
61531;SDS011;47397;48.194;11.632;2022-12-07T06:11:48;6.43;;;5.40;;
61531;SDS011;47397;48.194;11.632;2022-12-07T06:12:48;7.18;;;5.93;;